Time;durP1;ratioP1;P1;durP2;ratioP2;P2;SDS_P1;SDS_P2;PMS_P1;PMS_P2;Temp;Humidity;BMP_temperature;BMP_pressure;BME280_temperature;BME280_humidity;BME280_pressure;Samples;Min_cycle;Max_cycle;Signal;HPM_P1;HPM_P2
2021/05/17 00:00:18;;;;;;;9.70;3.30;;;;;;;9.39;82.77;100060.72;691241;28;934;-54
2021/05/17 00:00:39;;;;;;;8.90;3.28;;;;;;;9.36;82.56;100060.91;691053;28;1094;-57
2021/05/17 00:00:59;;;;;;;9.87;3.33;;;;;;;9.36;82.82;100060.00;690759;28;1179;-53
2021/05/17 00:01:22;;;;;;;9.53;3.23;;;;;;;9.36;83.03;100058.25;691283;28;824;-57
2021/05/17 00:01:45;;;;;;;8.85;3.33;;;;;;;9.33;83.11;100058.41;691030;28;821;-54
2021/05/17 00:02:07;;;;;;;9.70;3.35;;;;;;;9.30;82.70;100055.94;691252;28;1034;-56
2021/05/17 00:02:28;;;;;;;10.52;3.28;;;;;;;9.31;83.07;100055.00;691233;28;962;-57
2021/05/17 00:02:54;;;;;;;9.32;3.30;;;;;;;9.27;82.97;100061.34;691174;28;820;-57
2021/05/17 00:03:16;;;;;;;8.35;3.15;;;;;;;9.28;83.04;100053.34;691174;28;959;-56
2021/05/17 00:03:39;;;;;;;10.50;3.38;;;;;;;9.26;83.16;100059.63;691065;28;832;-54
2021/05/17 00:04:03;;;;;;;10.05;3.30;;;;;;;9.24;83.01;100057.06;691239;28;923;-52
2021/05/17 00:04:33;;;;;;;9.50;3.17;;;;;;;9.25;83.25;100052.66;691179;28;871;-54
2021/05/17 00:04:53;;;;;;;8.95;3.22;;;;;;;9.26;82.99;100049.13;691153;28;923;-56
2021/05/17 00:05:17;;;;;;;9.10;3.10;;;;;;;9.26;83.48;100049.13;691188;28;804;-55
2021/05/17 00:05:38;;;;;;;9.52;3.25;;;;;;;9.27;83.54;100049.03;691121;28;897;-56
2021/05/17 00:05:58;;;;;;;10.67;3.10;;;;;;;9.28;83.24;100042.00;691277;28;832;-55
2021/05/17 00:06:19;;;;;;;10.50;3.08;;;;;;;9.27;83.05;100043.78;691091;28;1131;-57
2021/05/17 00:06:40;;;;;;;8.45;2.83;;;;;;;9.32;83.09;100042.69;691175;28;860;-57
2021/05/17 00:07:06;;;;;;;9.13;2.90;;;;;;;9.31;82.97;100039.22;691042;28;1050;-55
2021/05/17 00:07:26;;;;;;;8.40;2.72;;;;;;;9.27;83.06;100040.31;691083;28;1231;-53
2021/05/17 00:07:47;;;;;;;7.43;2.80;;;;;;;9.29;82.84;100043.72;691102;28;864;-57
2021/05/17 00:08:08;;;;;;;8.88;2.80;;;;;;;9.32;83.10;100043.53;691120;28;864;-55
2021/05/17 00:08:28;;;;;;;8.23;2.67;;;;;;;9.28;83.12;100039.34;690791;28;820;-55
2021/05/17 00:08:49;;;;;;;9.07;2.67;;;;;;;9.24;83.11;100038.66;691105;28;797;-55
2021/05/17 00:09:09;;;;;;;8.68;2.72;;;;;;;9.25;82.80;100050.03;690921;28;1237;-57
2021/05/17 00:09:33;;;;;;;10.17;2.93;;;;;;;9.23;82.70;100036.13;690949;28;787;-57
2021/05/17 00:09:53;;;;;;;9.35;2.97;;;;;;;9.23;83.01;100041.38;690811;28;967;-57
2021/05/17 00:10:14;;;;;;;7.10;2.80;;;;;;;9.29;83.00;100041.09;691059;28;789;-57
2021/05/17 00:10:38;;;;;;;8.48;2.78;;;;;;;9.26;83.45;100041.22;690858;28;1918;-54
2021/05/17 00:10:58;;;;;;;8.25;3.10;;;;;;;9.26;83.33;100038.59;690900;28;944;-54
2021/05/17 00:11:19;;;;;;;9.45;3.22;;;;;;;9.29;83.24;100038.47;691135;28;1051;-56
2021/05/17 00:11:42;;;;;;;10.07;3.30;;;;;;;9.33;83.13;100034.75;691025;28;852;-56
2021/05/17 00:12:05;;;;;;;11.00;3.40;;;;;;;9.31;83.51;100041.84;691186;28;935;-55
2021/05/17 00:12:28;;;;;;;9.90;3.35;;;;;;;9.33;83.39;100040.00;690605;28;1148;-56
2021/05/17 00:12:49;;;;;;;10.25;3.40;;;;;;;9.35;83.17;100037.28;691229;28;1153;-56
2021/05/17 00:13:09;;;;;;;11.38;3.80;;;;;;;9.40;83.28;100040.56;691139;28;781;-54
2021/05/17 00:13:32;;;;;;;10.40;3.60;;;;;;;9.36;83.53;100039.84;691101;28;864;-55
2021/05/17 00:13:53;;;;;;;8.50;3.33;;;;;;;9.38;83.70;100040.63;691115;28;999;-57
2021/05/17 00:14:13;;;;;;;9.43;3.38;;;;;;;9.37;83.47;100038.91;690471;28;1514;-55
2021/05/17 00:14:34;;;;;;;9.63;3.20;;;;;;;9.35;83.70;100035.50;691166;28;804;-56
2021/05/17 00:14:55;;;;;;;10.02;3.45;;;;;;;9.35;84.07;100042.53;690939;28;962;-55
2021/05/17 00:15:17;;;;;;;9.77;3.60;;;;;;;9.35;83.84;100038.13;690740;28;959;-53
2021/05/17 00:15:38;;;;;;;10.23;3.67;;;;;;;9.31;84.24;100031.31;690846;28;975;-54
2021/05/17 00:15:59;;;;;;;12.20;3.97;;;;;;;9.31;84.06;100039.22;690899;28;879;-57
2021/05/17 00:16:19;;;;;;;13.07;4.10;;;;;;;9.30;84.26;100037.53;690821;28;1026;-55
2021/05/17 00:16:40;;;;;;;10.15;3.83;;;;;;;9.31;84.37;100038.38;690949;28;998;-54
2021/05/17 00:17:00;;;;;;;10.05;3.90;;;;;;;9.29;84.48;100035.81;690989;28;892;-56
2021/05/17 00:17:21;;;;;;;10.50;4.00;;;;;;;9.31;84.55;100030.47;690990;28;1249;-56
2021/05/17 00:17:46;;;;;;;10.68;3.72;;;;;;;9.27;84.19;100029.78;690999;28;1362;-56
2021/05/17 00:18:07;;;;;;;9.48;3.60;;;;;;;9.30;84.28;100029.63;691044;28;761;-57
2021/05/17 00:18:28;;;;;;;9.35;3.70;;;;;;;9.29;84.12;100027.94;690362;28;1119;-55
2021/05/17 00:18:49;;;;;;;9.40;3.83;;;;;;;9.32;84.18;100030.38;691103;28;825;-56
2021/05/17 00:19:10;;;;;;;11.63;3.97;;;;;;;9.34;84.27;100033.81;691103;28;945;-58
2021/05/17 00:19:30;;;;;;;9.18;4.00;;;;;;;9.34;84.55;100023.28;691132;28;789;-56
2021/05/17 00:19:55;;;;;;;9.90;3.83;;;;;;;9.36;84.54;100024.06;691047;28;830;-54
2021/05/17 00:20:17;;;;;;;9.05;3.60;;;;;;;9.43;84.23;100028.09;691158;28;891;-54
2021/05/17 00:20:37;;;;;;;9.98;3.75;;;;;;;9.47;84.52;100026.16;691101;28;951;-55
2021/05/17 00:20:58;;;;;;;11.55;3.70;;;;;;;9.63;84.17;100026.22;691057;28;840;-55
2021/05/17 00:21:22;;;;;;;9.90;3.47;;;;;;;9.64;83.77;100022.69;691074;28;827;-57
2021/05/17 00:21:42;;;;;;;11.15;3.90;;;;;;;9.60;83.77;100024.63;690956;28;934;-57
2021/05/17 00:22:03;;;;;;;9.52;3.90;;;;;;;9.66;83.60;100021.66;691016;28;981;-57
2021/05/17 00:22:23;;;;;;;9.77;3.67;;;;;;;9.71;83.53;100018.81;691162;28;832;-55
2021/05/17 00:22:45;;;;;;;8.77;3.73;;;;;;;9.66;83.45;100020.81;691082;28;907;-54
2021/05/17 00:23:11;;;;;;;11.48;4.15;;;;;;;9.64;83.28;100022.69;691217;28;1011;-56
2021/05/17 00:23:31;;;;;;;11.20;3.85;;;;;;;9.65;83.54;100030.50;691021;28;883;-53
2021/05/17 00:23:52;;;;;;;10.73;4.00;;;;;;;9.59;83.43;100024.69;691088;28;971;-55
2021/05/17 00:24:17;;;;;;;10.90;4.28;;;;;;;9.52;83.71;100024.16;691022;28;1014;-56
2021/05/17 00:24:40;;;;;;;10.88;4.25;;;;;;;9.54;84.03;100024.09;690976;28;1035;-57
2021/05/17 00:25:01;;;;;;;11.63;3.92;;;;;;;9.57;83.96;100026.56;691199;28;868;-55
2021/05/17 00:25:28;;;;;;;11.02;3.70;;;;;;;9.59;83.50;100024.69;691073;28;840;-56
2021/05/17 00:25:48;;;;;;;9.18;3.70;;;;;;;9.54;83.51;100022.28;691002;28;891;-55
2021/05/17 00:26:09;;;;;;;10.83;3.67;;;;;;;9.55;83.31;100029.25;691088;28;850;-57
2021/05/17 00:26:30;;;;;;;9.95;3.38;;;;;;;9.57;83.47;100023.94;691156;28;911;-55
2021/05/17 00:26:50;;;;;;;9.23;3.70;;;;;;;9.58;83.62;100028.25;691127;28;827;-57
2021/05/17 00:27:14;;;;;;;8.77;3.40;;;;;;;9.54;83.62;100031.97;691178;28;808;-53
2021/05/17 00:27:37;;;;;;;8.93;3.75;;;;;;;9.52;83.85;100024.16;691136;28;923;-56
2021/05/17 00:27:58;;;;;;;8.65;3.63;;;;;;;9.51;83.53;100027.72;690952;28;1106;-56
2021/05/17 00:28:19;;;;;;;8.68;3.70;;;;;;;9.49;83.62;100030.41;691256;28;936;-56
2021/05/17 00:28:39;;;;;;;8.23;3.57;;;;;;;9.46;83.91;100025.31;690721;28;927;-56
2021/05/17 00:29:00;;;;;;;8.35;3.55;;;;;;;9.46;83.99;100034.97;691089;28;883;-55
2021/05/17 00:29:20;;;;;;;10.68;3.80;;;;;;;9.44;84.56;100027.16;691266;28;825;-55
2021/05/17 00:29:41;;;;;;;9.67;3.60;;;;;;;9.44;84.23;100032.44;691059;28;786;-52
2021/05/17 00:30:03;;;;;;;8.65;3.42;;;;;;;9.43;84.27;100035.16;690910;28;849;-55
2021/05/17 00:30:27;;;;;;;8.70;3.60;;;;;;;9.41;84.26;100027.31;691022;28;1977;-53
2021/05/17 00:30:47;;;;;;;10.13;3.63;;;;;;;9.34;84.50;100030.34;691094;28;1030;-52
2021/05/17 00:31:08;;;;;;;10.35;3.80;;;;;;;9.32;84.75;100026.91;691065;28;907;-57
2021/05/17 00:31:29;;;;;;;10.43;4.13;;;;;;;9.36;85.02;100029.34;691155;28;950;-55
2021/05/17 00:31:49;;;;;;;8.82;4.00;;;;;;;9.37;84.82;100031.03;690912;28;903;-56
2021/05/17 00:32:18;;;;;;;9.45;4.10;;;;;;;9.41;84.43;100031.72;691122;28;879;-56
2021/05/17 00:32:39;;;;;;;10.23;4.10;;;;;;;9.40;84.43;100030.88;690982;28;957;-54
2021/05/17 00:33:01;;;;;;;10.55;4.43;;;;;;;9.35;84.71;100034.66;691146;28;910;-57
2021/05/17 00:33:21;;;;;;;9.93;4.18;;;;;;;9.30;84.79;100029.63;690982;28;938;-56
2021/05/17 00:33:43;;;;;;;10.20;4.10;;;;;;;9.30;84.86;100034.88;691000;28;1041;-56
2021/05/17 00:34:08;;;;;;;10.32;4.22;;;;;;;9.28;84.54;100029.69;691065;28;872;-55
2021/05/17 00:34:28;;;;;;;10.00;4.25;;;;;;;9.26;84.84;100028.09;691059;28;964;-56
2021/05/17 00:34:49;;;;;;;10.95;4.03;;;;;;;9.24;84.77;100030.78;691057;28;1042;-56
2021/05/17 00:35:10;;;;;;;9.65;3.90;;;;;;;9.23;85.36;100033.50;691255;28;797;-52
2021/05/17 00:35:31;;;;;;;9.77;4.25;;;;;;;9.20;85.00;100031.00;691116;28;1114;-54
2021/05/17 00:35:51;;;;;;;9.90;4.07;;;;;;;9.20;85.12;100031.84;691059;28;900;-55
2021/05/17 00:36:12;;;;;;;10.17;3.90;;;;;;;9.21;85.29;100032.69;691055;28;885;-54
2021/05/17 00:36:33;;;;;;;10.70;3.80;;;;;;;9.20;84.93;100023.97;691277;28;935;-55
2021/05/17 00:36:57;;;;;;;10.32;4.32;;;;;;;9.19;85.00;100026.69;691204;28;848;-55
2021/05/17 00:37:17;;;;;;;10.85;4.32;;;;;;;9.18;85.04;100027.59;690292;28;1432;-53
2021/05/17 00:37:38;;;;;;;11.90;4.53;;;;;;;9.14;85.54;100024.25;691160;28;999;-53
2021/05/17 00:37:59;;;;;;;10.68;4.45;;;;;;;9.13;85.13;100032.22;691027;28;1070;-55
2021/05/17 00:38:20;;;;;;;11.77;4.83;;;;;;;9.12;85.29;100027.88;691104;28;935;-55
2021/05/17 00:38:40;;;;;;;11.68;4.90;;;;;;;9.11;85.43;100028.81;690742;28;899;-55
2021/05/17 00:39:04;;;;;;;12.15;4.75;;;;;;;9.12;85.54;100030.50;691013;28;888;-54
2021/05/17 00:39:24;;;;;;;10.52;4.72;;;;;;;9.11;85.32;100028.81;691129;28;828;-56
2021/05/17 00:39:47;;;;;;;11.63;4.50;;;;;;;9.09;85.42;100022.81;691073;28;953;-53
2021/05/17 00:40:10;;;;;;;10.48;4.53;;;;;;;9.10;85.66;100027.97;691161;28;860;-54
2021/05/17 00:40:30;;;;;;;11.68;4.68;;;;;;;9.09;85.26;100028.06;691083;28;1069;-54
2021/05/17 00:40:51;;;;;;;10.67;4.40;;;;;;;9.07;85.31;100024.63;691011;28;971;-55
2021/05/17 00:41:11;;;;;;;9.70;4.57;;;;;;;9.09;85.28;100030.69;690766;28;1063;-53
2021/05/17 00:41:33;;;;;;;11.23;4.63;;;;;;;9.08;85.18;100019.28;691001;28;1212;-52
2021/05/17 00:41:56;;;;;;;10.45;4.30;;;;;;;9.08;85.29;100028.97;690965;28;1023;-54
2021/05/17 00:42:16;;;;;;;9.98;4.82;;;;;;;9.06;85.46;100028.19;691044;28;986;-52
2021/05/17 00:42:43;;;;;;;10.27;4.78;;;;;;;9.04;85.26;100026.47;691091;28;902;-55
2021/05/17 00:43:09;;;;;;;10.63;4.65;;;;;;;9.05;85.40;100024.72;691144;28;933;-53
2021/05/17 00:43:38;;;;;;;9.98;4.40;;;;;;;9.06;85.58;100023.78;691049;28;1037;-52
2021/05/17 00:44:01;;;;;;;11.65;4.80;;;;;;;9.02;85.51;100015.22;691053;28;907;-53
2021/05/17 00:44:21;;;;;;;9.27;4.70;;;;;;;9.06;85.47;100020.31;690792;28;828;-54
2021/05/17 00:44:45;;;;;;;10.23;4.97;;;;;;;9.03;85.44;100016.91;691104;28;1050;-51
2021/05/17 00:45:10;;;;;;;11.25;4.95;;;;;;;9.08;85.47;100021.06;691114;28;941;-51
2021/05/17 00:45:31;;;;;;;11.50;5.05;;;;;;;9.06;85.14;100015.91;691165;28;828;-52
2021/05/17 00:45:52;;;;;;;9.57;4.82;;;;;;;9.07;85.37;100016.75;691027;28;951;-50
2021/05/17 00:46:13;;;;;;;11.50;4.97;;;;;;;9.06;85.86;100015.91;691037;28;963;-53
2021/05/17 00:46:33;;;;;;;12.80;4.97;;;;;;;9.06;85.44;100018.53;690945;28;855;-53
2021/05/17 00:46:55;;;;;;;12.25;5.00;;;;;;;9.05;85.76;100019.47;690955;28;1282;-52
2021/05/17 00:47:16;;;;;;;10.10;5.03;;;;;;;9.04;85.29;100023.84;690880;28;1409;-52
2021/05/17 00:47:40;;;;;;;11.60;5.10;;;;;;;9.01;85.28;100024.00;691037;28;902;-50
2021/05/17 00:48:01;;;;;;;10.70;4.95;;;;;;;9.00;85.41;100027.56;690874;28;914;-53
2021/05/17 00:48:21;;;;;;;11.40;4.90;;;;;;;8.98;85.73;100028.53;690965;28;1077;-54
2021/05/17 00:48:42;;;;;;;12.27;5.18;;;;;;;8.99;85.40;100017.97;690808;28;815;-53
2021/05/17 00:49:06;;;;;;;12.35;5.43;;;;;;;9.00;85.57;100022.28;691167;28;941;-51
2021/05/17 00:49:26;;;;;;;12.40;5.00;;;;;;;9.00;85.66;100018.81;691169;28;910;-54
2021/05/17 00:49:47;;;;;;;11.95;5.10;;;;;;;9.01;85.81;100018.72;690916;28;1002;-51
2021/05/17 00:50:09;;;;;;;11.57;5.13;;;;;;;9.02;86.20;100025.72;691048;28;925;-55
2021/05/17 00:50:33;;;;;;;11.55;5.35;;;;;;;9.02;85.96;100015.22;691080;28;1961;-51
2021/05/17 00:50:53;;;;;;;10.55;4.82;;;;;;;9.08;85.85;100018.44;690988;28;1075;-51
2021/05/17 00:51:13;;;;;;;10.50;4.82;;;;;;;9.06;86.32;100020.31;691134;28;936;-52
2021/05/17 00:51:34;;;;;;;11.57;5.10;;;;;;;9.05;85.90;100016.84;691110;28;840;-50
2021/05/17 00:51:54;;;;;;;13.40;5.50;;;;;;;9.06;85.82;100021.16;690952;28;1065;-50
2021/05/17 00:52:19;;;;;;;13.73;5.20;;;;;;;9.07;85.89;100022.00;691009;28;818;-50
2021/05/17 00:52:40;;;;;;;11.05;5.20;;;;;;;9.02;85.89;100017.84;690801;28;939;-49
2021/05/17 00:53:00;;;;;;;12.50;5.20;;;;;;;9.07;85.82;100024.63;691158;28;856;-51
2021/05/17 00:53:24;;;;;;;11.25;5.10;;;;;;;9.08;86.09;100018.44;690977;28;980;-52
2021/05/17 00:53:44;;;;;;;11.10;5.13;;;;;;;9.09;85.69;100015.75;691120;28;942;-49
2021/05/17 00:54:05;;;;;;;11.15;5.18;;;;;;;9.10;85.95;100016.59;691418;28;1102;-49
2021/05/17 00:54:26;;;;;;;12.48;5.22;;;;;;;9.11;85.77;100018.31;692167;28;878;-49
2021/05/17 00:54:46;;;;;;;12.20;5.27;;;;;;;9.12;85.82;100015.63;692376;28;959;-48
2021/05/17 00:55:10;;;;;;;10.88;5.57;;;;;;;9.12;85.77;100010.34;692457;28;1046;-51
2021/05/17 00:55:31;;;;;;;10.68;5.38;;;;;;;9.12;85.83;100010.34;691490;28;1317;-49
2021/05/17 00:55:51;;;;;;;10.33;5.00;;;;;;;9.17;85.68;100015.38;692179;28;952;-51
2021/05/17 00:56:12;;;;;;;11.55;5.38;;;;;;;9.18;85.49;100011.81;692009;28;985;-50
2021/05/17 00:56:33;;;;;;;14.50;5.72;;;;;;;9.18;85.53;100015.28;692433;28;887;-50
2021/05/17 00:56:53;;;;;;;12.88;5.95;;;;;;;9.18;85.76;100015.28;692033;28;983;-52
2021/05/17 00:57:14;;;;;;;11.10;4.87;;;;;;;9.18;85.94;100014.44;691864;28;1352;-52
2021/05/17 00:57:35;;;;;;;11.48;5.07;;;;;;;9.18;85.71;100014.44;692162;28;955;-50
2021/05/17 00:57:55;;;;;;;13.20;5.53;;;;;;;9.16;85.49;100009.28;691772;28;1007;-51
2021/05/17 00:58:16;;;;;;;13.03;5.60;;;;;;;9.17;85.63;100010.13;692496;28;824;-50
2021/05/17 00:58:37;;;;;;;12.77;5.65;;;;;;;9.15;85.49;100009.34;691860;28;912;-49
2021/05/17 00:58:57;;;;;;;12.50;5.72;;;;;;;9.18;85.64;100009.19;691593;28;959;-50
2021/05/17 00:59:18;;;;;;;12.50;5.78;;;;;;;9.16;85.43;100011.06;691361;28;915;-49
2021/05/17 00:59:41;;;;;;;12.73;5.57;;;;;;;9.14;85.67;100008.47;691317;28;812;-50
2021/05/17 01:00:07;;;;;;;12.45;5.50;;;;;;;9.15;85.76;100014.59;690173;28;1303;-50
2021/05/17 01:00:31;;;;;;;13.93;5.63;;;;;;;9.15;85.75;100009.34;691324;28;1070;-49
2021/05/17 01:00:52;;;;;;;12.05;5.95;;;;;;;9.16;85.86;100011.06;690980;28;836;-49
2021/05/17 01:01:12;;;;;;;11.87;5.63;;;;;;;9.17;85.76;100010.13;691037;28;896;-51
2021/05/17 01:01:33;;;;;;;13.48;5.82;;;;;;;9.18;85.60;100011.81;691011;28;1050;-49
2021/05/17 01:01:53;;;;;;;12.70;5.77;;;;;;;9.19;85.81;100016.16;690906;28;983;-49
2021/05/17 01:02:14;;;;;;;11.00;5.60;;;;;;;9.17;85.92;100012.75;691033;28;900;-49
2021/05/17 01:02:34;;;;;;;12.87;5.93;;;;;;;9.22;86.00;100010.72;691048;28;797;-49
2021/05/17 01:02:54;;;;;;;12.20;6.07;;;;;;;9.22;85.89;100011.59;690975;28;888;-49
2021/05/17 01:03:15;;;;;;;12.73;5.97;;;;;;;9.23;85.76;100012.47;690989;28;1054;-50
2021/05/17 01:03:45;;;;;;;12.55;6.05;;;;;;;9.21;85.82;100011.66;691050;28;931;-49
2021/05/17 01:04:05;;;;;;;13.73;6.25;;;;;;;9.19;85.72;100003.88;691059;28;934;-49
2021/05/17 01:04:25;;;;;;;14.50;6.33;;;;;;;9.17;85.31;100010.13;690983;28;968;-50
2021/05/17 01:04:46;;;;;;;12.65;6.30;;;;;;;9.15;85.29;100006.69;691003;28;898;-50
2021/05/17 01:05:10;;;;;;;13.33;6.33;;;;;;;9.12;85.49;100005.09;691177;28;879;-50
2021/05/17 01:05:31;;;;;;;12.68;6.50;;;;;;;9.12;85.59;100004.22;691043;28;1354;-50
2021/05/17 01:05:52;;;;;;;12.63;6.47;;;;;;;9.19;85.63;100005.66;690928;28;1071;-52
2021/05/17 01:06:16;;;;;;;15.32;6.88;;;;;;;9.22;85.71;100010.72;690971;28;1002;-51
2021/05/17 01:06:37;;;;;;;14.48;6.93;;;;;;;9.23;85.58;100013.31;691097;28;1014;-51
2021/05/17 01:06:59;;;;;;;12.32;6.85;;;;;;;9.23;85.82;100012.47;690523;28;1284;-51
2021/05/17 01:07:23;;;;;;;14.45;7.20;;;;;;;9.22;85.77;100003.72;691071;28;1233;-50
2021/05/17 01:07:49;;;;;;;14.07;6.75;;;;;;;9.23;85.98;100001.94;691258;28;951;-50
2021/05/17 01:08:22;;;;;;;12.80;7.13;;;;;;;9.25;86.03;100005.31;691302;28;943;-48
2021/05/17 01:09:00;;;;;;;14.73;7.35;;;;;;;9.24;86.25;100003.63;691001;28;887;-49
2021/05/17 01:09:21;;;;;;;15.23;7.20;;;;;;;9.23;85.93;100004.56;691231;28;994;-48
2021/05/17 01:09:44;;;;;;;10.80;6.53;;;;;;;9.25;86.10;100005.31;691321;28;809;-48
2021/05/17 01:10:08;;;;;;;11.73;6.40;;;;;;;9.23;85.83;99999.31;690387;28;1385;-47
2021/05/17 01:10:30;;;;;;;11.25;6.70;;;;;;;9.24;85.80;100001.84;691415;28;1910;-51
2021/05/17 01:10:54;;;;;;;12.45;6.95;;;;;;;9.24;86.07;100001.00;691597;28;1073;-48
2021/05/17 01:11:17;;;;;;;13.18;7.10;;;;;;;9.22;86.01;100001.09;691366;28;891;-48
2021/05/17 01:11:37;;;;;;;12.35;7.32;;;;;;;9.24;85.99;100003.63;691278;28;863;-49
2021/05/17 01:11:58;;;;;;;14.63;7.37;;;;;;;9.22;86.15;99997.59;691370;28;900;-49
2021/05/17 01:12:21;;;;;;;12.95;6.95;;;;;;;9.23;85.79;99994.06;691455;28;884;-52
2021/05/17 01:12:47;;;;;;;11.68;7.00;;;;;;;9.24;86.06;99998.38;691429;28;891;-48
2021/05/17 01:13:10;;;;;;;12.88;7.30;;;;;;;9.22;86.15;100001.09;691358;28;1126;-49
2021/05/17 01:13:32;;;;;;;15.77;7.78;;;;;;;9.22;86.29;100001.09;691379;28;970;-50
2021/05/17 01:13:54;;;;;;;14.63;7.70;;;;;;;9.22;86.03;100001.09;691358;28;887;-48
2021/05/17 01:14:15;;;;;;;13.10;7.47;;;;;;;9.22;86.31;100006.34;691343;28;907;-51
2021/05/17 01:14:36;;;;;;;12.40;7.53;;;;;;;9.22;86.19;100005.47;691278;28;890;-51
2021/05/17 01:14:58;;;;;;;12.63;7.30;;;;;;;9.24;85.87;100003.63;691951;28;1015;-51
2021/05/17 01:15:19;;;;;;;14.82;7.75;;;;;;;9.21;86.10;99999.38;691132;28;1075;-50
2021/05/17 01:15:42;;;;;;;17.27;7.90;;;;;;;9.19;86.05;100000.41;691208;28;878;-50
2021/05/17 01:16:03;;;;;;;15.43;7.65;;;;;;;9.19;86.03;100000.41;691057;28;824;-50
2021/05/17 01:16:24;;;;;;;14.27;7.67;;;;;;;9.20;86.15;100002.09;690945;28;834;-51
2021/05/17 01:16:44;;;;;;;14.10;7.75;;;;;;;9.21;85.99;99998.53;691107;28;875;-48
2021/05/17 01:17:05;;;;;;;14.00;7.65;;;;;;;9.21;85.94;99998.53;691052;28;820;-48
2021/05/17 01:17:26;;;;;;;14.67;7.63;;;;;;;9.22;86.28;100005.47;690945;28;1353;-51
2021/05/17 01:17:47;;;;;;;13.90;7.45;;;;;;;9.21;86.00;99998.53;690973;28;1105;-50
2021/05/17 01:18:11;;;;;;;14.68;7.63;;;;;;;9.22;86.32;100006.34;690916;28;854;-51
2021/05/17 01:18:39;;;;;;;17.38;7.95;;;;;;;9.24;86.07;99998.38;690600;28;899;-54
2021/05/17 01:19:00;;;;;;;14.40;7.88;;;;;;;9.28;86.07;100005.19;690956;28;849;-50
2021/05/17 01:19:48;;;;;;;15.13;7.68;;;;;;;9.30;86.29;99998.06;691041;28;888;-50
2021/05/17 01:20:15;;;;;;;15.27;7.95;;;;;;;9.30;86.23;100005.97;690946;28;1110;-50
2021/05/17 01:20:36;;;;;;;14.70;7.68;;;;;;;9.28;86.16;100003.41;691087;28;955;-48
2021/05/17 01:20:57;;;;;;;13.10;7.10;;;;;;;9.31;86.07;99998.91;691051;28;1023;-47
2021/05/17 01:21:20;;;;;;;13.32;7.63;;;;;;;9.28;86.24;99995.50;691022;28;832;-50
2021/05/17 01:21:48;;;;;;;12.68;7.25;;;;;;;9.30;86.16;99997.22;690962;28;1027;-51
2021/05/17 01:22:11;;;;;;;14.10;7.30;;;;;;;9.28;86.00;99994.66;690882;28;1173;-48
2021/05/17 01:22:39;;;;;;;14.85;7.53;;;;;;;9.27;85.82;99998.22;690915;28;912;-49
2021/05/17 01:23:30;;;;;;;14.40;7.55;;;;;;;9.25;86.06;99995.66;691102;28;895;-50
2021/05/17 01:23:56;;;;;;;13.15;7.10;;;;;;;9.23;86.06;99994.91;690891;28;1630;-50
2021/05/17 01:24:16;;;;;;;12.57;7.15;;;;;;;9.25;86.27;99986.91;690934;28;859;-49
2021/05/17 01:24:38;;;;;;;13.65;7.55;;;;;;;9.23;85.86;99992.28;690927;28;1381;-48
2021/05/17 01:24:59;;;;;;;14.75;7.68;;;;;;;9.24;86.09;99998.38;691041;28;1110;-47
2021/05/17 01:25:25;;;;;;;14.63;7.68;;;;;;;9.21;85.98;99994.09;690770;28;867;-49
2021/05/17 01:25:47;;;;;;;14.50;7.47;;;;;;;9.19;86.04;99995.13;691138;28;832;-47
2021/05/17 01:26:07;;;;;;;14.20;7.93;;;;;;;9.15;86.03;99993.56;690876;28;914;-47
2021/05/17 01:26:31;;;;;;;13.87;7.83;;;;;;;9.12;86.17;99998.97;691041;28;859;-52
2021/05/17 01:26:53;;;;;;;14.23;7.53;;;;;;;9.16;86.19;100000.53;691101;28;959;-49
2021/05/17 01:27:13;;;;;;;13.68;7.65;;;;;;;9.15;86.16;99997.06;690822;28;1281;-48
2021/05/17 01:27:35;;;;;;;12.70;7.70;;;;;;;9.15;86.43;99994.44;691055;28;911;-49
2021/05/17 01:27:56;;;;;;;14.50;7.60;;;;;;;9.14;86.39;99995.34;690973;28;864;-49
2021/05/17 01:28:23;;;;;;;14.55;7.72;;;;;;;9.13;86.71;99987.53;690960;28;890;-50
2021/05/17 01:28:44;;;;;;;14.90;7.78;;;;;;;9.15;86.43;100001.44;690657;28;1027;-50
2021/05/17 01:29:06;;;;;;;14.43;7.70;;;;;;;9.09;86.50;99989.47;690988;28;831;-49
2021/05/17 01:29:27;;;;;;;14.55;8.10;;;;;;;9.11;86.39;99998.13;691039;28;871;-52
2021/05/17 01:29:48;;;;;;;13.30;8.07;;;;;;;9.12;86.56;99999.84;690997;28;885;-49
2021/05/17 01:30:09;;;;;;;13.52;7.90;;;;;;;9.13;86.58;99995.44;690877;28;973;-49
2021/05/17 01:30:29;;;;;;;16.07;8.33;;;;;;;9.15;86.44;100001.44;690884;28;1920;-51
2021/05/17 01:30:59;;;;;;;14.45;8.27;;;;;;;9.15;86.61;99998.81;690798;28;1046;-49
2021/05/17 01:31:20;;;;;;;15.38;8.15;;;;;;;9.15;86.78;99994.44;691001;28;950;-51
2021/05/17 01:31:40;;;;;;;16.48;8.77;;;;;;;9.15;86.78;99993.56;690827;28;1146;-50
2021/05/17 01:32:01;;;;;;;15.63;8.80;;;;;;;9.14;86.44;99997.97;691002;28;910;-47
2021/05/17 01:32:21;;;;;;;14.43;8.45;;;;;;;9.13;86.93;99996.28;690772;28;899;-48
2021/05/17 01:32:43;;;;;;;14.35;8.55;;;;;;;9.13;87.12;100000.69;690836;28;882;-49
2021/05/17 01:33:04;;;;;;;14.77;8.48;;;;;;;9.11;86.88;99995.50;691036;28;847;-48
2021/05/17 01:33:30;;;;;;;15.02;8.40;;;;;;;9.11;86.93;99997.28;690992;28;883;-48
2021/05/17 01:33:52;;;;;;;13.98;8.57;;;;;;;9.10;86.88;99998.22;690669;28;1211;-48
2021/05/17 01:34:14;;;;;;;15.80;8.80;;;;;;;9.11;87.02;99992.00;690751;28;900;-48
2021/05/17 01:34:36;;;;;;;18.40;9.10;;;;;;;9.16;86.84;99995.28;690608;28;840;-46
2021/05/17 01:35:01;;;;;;;17.05;9.13;;;;;;;9.16;87.09;99995.28;690712;28;1014;-49
2021/05/17 01:35:25;;;;;;;17.73;8.77;;;;;;;9.15;86.78;100001.44;690647;28;1038;-47
2021/05/17 01:35:50;;;;;;;14.15;8.10;;;;;;;9.15;86.93;99998.81;690764;28;1390;-48
2021/05/17 01:36:15;;;;;;;14.10;8.32;;;;;;;9.16;87.09;99995.28;690862;28;922;-48
2021/05/17 01:36:37;;;;;;;15.80;8.48;;;;;;;9.15;86.75;99996.19;690862;28;927;-47
2021/05/17 01:36:59;;;;;;;14.40;8.50;;;;;;;9.14;87.12;99997.13;690577;28;1216;-48
2021/05/17 01:37:22;;;;;;;14.77;8.60;;;;;;;9.14;86.80;99997.13;690658;28;1256;-47
2021/05/17 01:37:44;;;;;;;12.80;8.73;;;;;;;9.14;86.82;99997.97;690802;28;890;-47
2021/05/17 01:38:06;;;;;;;16.02;9.05;;;;;;;9.14;86.98;99994.50;690636;28;971;-50
2021/05/17 01:38:30;;;;;;;16.10;9.30;;;;;;;9.12;86.94;99994.59;690396;28;856;-48
2021/05/17 01:38:53;;;;;;;15.50;9.45;;;;;;;9.15;86.71;99998.81;690027;28;1322;-47
2021/05/17 01:39:18;;;;;;;17.10;9.90;;;;;;;9.16;86.96;99995.28;690929;28;875;-49
2021/05/17 01:39:41;;;;;;;15.63;9.77;;;;;;;9.15;86.90;99994.44;691033;28;1042;-47
2021/05/17 01:40:02;;;;;;;15.38;9.25;;;;;;;9.14;86.77;99995.34;690927;28;847;-47
2021/05/17 01:40:24;;;;;;;16.33;9.23;;;;;;;9.16;87.16;99992.66;690853;28;955;-46
2021/05/17 01:40:46;;;;;;;16.30;9.25;;;;;;;9.16;86.87;99990.88;690854;28;1003;-47
2021/05/17 01:41:13;;;;;;;15.75;9.20;;;;;;;9.15;86.72;99986.56;690970;28;883;-49
2021/05/17 01:41:42;;;;;;;15.35;9.88;;;;;;;9.13;86.72;99990.19;690828;28;911;-49
2021/05/17 01:42:06;;;;;;;16.08;9.90;;;;;;;9.12;86.83;99993.72;690821;28;903;-48
2021/05/17 01:42:27;;;;;;;18.33;10.02;;;;;;;9.15;86.92;99998.81;690867;28;958;-48
2021/05/17 01:42:48;;;;;;;17.70;10.02;;;;;;;9.17;86.89;99992.56;690918;28;867;-47
2021/05/17 01:43:11;;;;;;;17.08;9.77;;;;;;;9.19;87.07;99993.34;690945;28;887;-48
2021/05/17 01:43:33;;;;;;;15.45;9.45;;;;;;;9.21;87.17;99998.53;690872;28;867;-47
2021/05/17 01:43:55;;;;;;;16.10;9.65;;;;;;;9.19;86.86;99989.88;691022;28;887;-52
2021/05/17 01:44:23;;;;;;;16.48;10.10;;;;;;;9.20;86.36;99992.41;690779;28;903;-48
2021/05/17 01:44:45;;;;;;;16.63;10.55;;;;;;;9.16;86.38;99992.66;690960;28;844;-48
2021/05/17 01:45:09;;;;;;;17.67;10.57;;;;;;;9.14;86.33;99991.88;690938;28;892;-48
2021/05/17 01:45:30;;;;;;;15.55;10.38;;;;;;;9.15;86.42;99996.19;690966;28;1117;-49
2021/05/17 01:45:51;;;;;;;18.25;10.35;;;;;;;9.16;86.66;99995.28;690835;28;987;-49
2021/05/17 01:46:17;;;;;;;17.17;10.50;;;;;;;9.17;86.81;99996.97;690806;28;852;-49
2021/05/17 01:46:40;;;;;;;16.85;10.77;;;;;;;9.15;86.49;99999.69;690938;28;915;-49
2021/05/17 01:47:01;;;;;;;18.60;11.02;;;;;;;9.13;86.73;99995.44;690808;28;895;-48
2021/05/17 01:47:23;;;;;;;16.00;10.80;;;;;;;9.13;86.73;99998.06;690269;28;1358;-48
2021/05/17 01:47:44;;;;;;;18.60;11.25;;;;;;;9.15;86.73;99996.19;691036;28;839;-49
2021/05/17 01:48:08;;;;;;;17.20;10.70;;;;;;;9.15;86.78;99990.94;690815;28;812;-48